AFR863 DXXX-LFPG
Flight info
| Callsign | AFR863 |
|---|---|
| Flight time | N/A |
| Altitude | 38000 |
| Route | AMSOM2S AMSOM UR983 OG UR866 VOSNU/N0472F400 UR866 BULIS DCT MABAP UR722 SAK UG5 KORIS DCT SVL DCT HIJ DCT RUSEM DCT SOTUK DCT USOKO DCT TLD DCT SIE DCT EDIGO DCT DGO L176 LUSEM DCT LULUT DCT POI/N0463F300 DCT PEPAX UT182 KEPER |
| Aircraft | A332/H-SDE3GHIJ2J3J5M1RVWXY/LB2D1 |
Departure
| Time | 2026-05-07 16:26 |
|---|---|
| Airport | Lomé–Tokoin International Airport (DXXX) |
Arrival
| Time | N/A |
|---|---|
| Airport | Charles de Gaulle International Airport (LFPG) |
| Time | Latitude | Longitude | Altitude | Speed | Heading |
|---|---|---|---|---|---|
| 2026-05-07 15:52 | 6.17053 | 1.25466 | 79 ft | 0 kts | 308° |
| 2026-05-07 15:53 | 6.17053 | 1.25467 | 79 ft | 0 kts | 308° |
| 2026-05-07 15:55 | 6.17052 | 1.25467 | 79 ft | 0 kts | 308° |
| 2026-05-07 16:10 | 6.17052 | 1.25468 | 79 ft | 0 kts | 308° |
| 2026-05-07 16:14 | 6.17051 | 1.25469 | 67 ft | 2 kts | 308° |
| 2026-05-07 16:14 | 6.17035 | 1.25489 | 67 ft | 4 kts | 308° |
| 2026-05-07 16:14 | 6.17020 | 1.25508 | 66 ft | 3 kts | 309° |
| 2026-05-07 16:14 | 6.17001 | 1.25521 | 66 ft | 4 kts | 4° |
| 2026-05-07 16:15 | 6.16977 | 1.25512 | 66 ft | 4 kts | 36° |
| 2026-05-07 16:15 | 6.16969 | 1.25506 | 66 ft | 0 kts | 38° |
| 2026-05-07 16:20 | 6.16970 | 1.25507 | 66 ft | 1 kts | 38° |
| 2026-05-07 16:20 | 6.16977 | 1.25512 | 66 ft | 2 kts | 38° |
| 2026-05-07 16:21 | 6.16992 | 1.25524 | 66 ft | 3 kts | 38° |
| 2026-05-07 16:21 | 6.17015 | 1.25541 | 66 ft | 5 kts | 38° |
| 2026-05-07 16:21 | 6.17051 | 1.25570 | 66 ft | 10 kts | 39° |
| 2026-05-07 16:21 | 6.17110 | 1.25619 | 69 ft | 11 kts | 39° |
| 2026-05-07 16:22 | 6.17173 | 1.25669 | 73 ft | 12 kts | 39° |
| 2026-05-07 16:22 | 6.17246 | 1.25727 | 67 ft | 16 kts | 37° |
| 2026-05-07 16:22 | 6.17348 | 1.25806 | 65 ft | 20 kts | 40° |
| 2026-05-07 16:22 | 6.17456 | 1.25895 | 67 ft | 20 kts | 38° |
| 2026-05-07 16:23 | 6.17564 | 1.25981 | 66 ft | 20 kts | 39° |
| 2026-05-07 16:23 | 6.17667 | 1.26062 | 69 ft | 17 kts | 38° |
| 2026-05-07 16:23 | 6.17712 | 1.26131 | 83 ft | 9 kts | 99° |
| 2026-05-07 16:23 | 6.17688 | 1.26181 | 67 ft | 6 kts | 141° |
| 2026-05-07 16:24 | 6.17656 | 1.26216 | 70 ft | 8 kts | 133° |
| 2026-05-07 16:24 | 6.17621 | 1.26239 | 71 ft | 4 kts | 177° |
| 2026-05-07 16:24 | 6.17589 | 1.26220 | 68 ft | 6 kts | 219° |
| 2026-05-07 16:24 | 6.17554 | 1.26190 | 66 ft | 10 kts | 218° |
| 2026-05-07 16:25 | 6.17407 | 1.26076 | 64 ft | 53 kts | 218° |
| 2026-05-07 16:25 | 6.16972 | 1.25729 | 68 ft | 105 kts | 218° |
| 2026-05-07 16:25 | 6.16273 | 1.25175 | 61 ft | 150 kts | 218° |
| 2026-05-07 16:25 | 6.15400 | 1.24490 | 458 ft | 159 kts | 217° |
| 2026-05-07 16:26 | 6.14482 | 1.23919 | 1095 ft | 154 kts | 192° |
| 2026-05-07 16:26 | 6.13459 | 1.24212 | 1433 ft | 168 kts | 138° |
| 2026-05-07 16:26 | 6.12894 | 1.25282 | 1697 ft | 188 kts | 105° |
| 2026-05-07 16:26 | 6.12888 | 1.26196 | 1838 ft | 202 kts | 78° |
| 2026-05-07 16:27 | 6.14194 | 1.27605 | 2087 ft | 230 kts | 20° |
| 2026-05-07 16:27 | 6.15849 | 1.27665 | 2165 ft | 252 kts | 347° |
| 2026-05-07 16:27 | 6.17631 | 1.27206 | 2252 ft | 279 kts | 340° |
| 2026-05-07 16:27 | 6.19483 | 1.26507 | 2714 ft | 284 kts | 336° |
| 2026-05-07 16:28 | 6.21293 | 1.25741 | 3504 ft | 281 kts | 336° |
| 2026-05-07 16:28 | 6.23073 | 1.24959 | 4295 ft | 277 kts | 335° |
| 2026-05-07 16:28 | 6.24822 | 1.24142 | 5080 ft | 275 kts | 335° |
| 2026-05-07 16:28 | 6.26559 | 1.23303 | 5775 ft | 277 kts | 336° |
| 2026-05-07 16:29 | 6.28323 | 1.22485 | 6424 ft | 282 kts | 338° |
| 2026-05-07 16:29 | 6.30121 | 1.21653 | 7009 ft | 288 kts | 337° |
| 2026-05-07 16:29 | 6.31942 | 1.20770 | 7590 ft | 291 kts | 337° |
| 2026-05-07 16:29 | 6.33786 | 1.19921 | 8121 ft | 291 kts | 340° |
| 2026-05-07 16:30 | 6.35656 | 1.19113 | 8626 ft | 294 kts | 341° |
| 2026-05-07 16:30 | 6.37547 | 1.18311 | 9111 ft | 297 kts | 341° |
| 2026-05-07 16:30 | 6.39444 | 1.17517 | 9596 ft | 300 kts | 342° |
| 2026-05-07 16:30 | 6.41379 | 1.16691 | 10062 ft | 303 kts | 341° |
| 2026-05-07 16:31 | 6.43347 | 1.15818 | 10225 ft | 317 kts | 341° |
| 2026-05-07 16:31 | 6.45410 | 1.14914 | 10419 ft | 330 kts | 341° |
| 2026-05-07 16:31 | 6.47550 | 1.13972 | 10586 ft | 342 kts | 340° |
| 2026-05-07 16:31 | 6.49762 | 1.12991 | 10757 ft | 353 kts | 340° |
| 2026-05-07 16:32 | 6.52045 | 1.11974 | 10910 ft | 364 kts | 340° |
| 2026-05-07 16:32 | 6.54388 | 1.10927 | 11052 ft | 374 kts | 340° |
| 2026-05-07 16:32 | 6.56807 | 1.09845 | 11189 ft | 383 kts | 340° |
| 2026-05-07 16:32 | 6.59251 | 1.08800 | 11401 ft | 388 kts | 342° |
| 2026-05-07 16:33 | 6.61742 | 1.07831 | 11674 ft | 390 kts | 343° |
| 2026-05-07 16:33 | 6.64332 | 1.06877 | 11971 ft | 393 kts | 344° |
| 2026-05-07 16:33 | 6.66879 | 1.05958 | 12259 ft | 395 kts | 344° |
| 2026-05-07 16:33 | 6.69474 | 1.05024 | 12562 ft | 398 kts | 344° |
| 2026-05-07 16:34 | 6.72087 | 1.04079 | 12863 ft | 400 kts | 343° |
| 2026-05-07 16:34 | 6.74707 | 1.03123 | 13173 ft | 402 kts | 343° |
| 2026-05-07 16:34 | 6.77342 | 1.02156 | 13487 ft | 404 kts | 343° |
| 2026-05-07 16:34 | 6.79985 | 1.01182 | 13760 ft | 406 kts | 343° |
| 2026-05-07 16:35 | 6.82644 | 1.00199 | 14017 ft | 408 kts | 343° |
| 2026-05-07 16:35 | 6.85313 | 0.99212 | 14286 ft | 410 kts | 343° |
| 2026-05-07 16:35 | 6.87993 | 0.98221 | 14561 ft | 411 kts | 343° |
| 2026-05-07 16:35 | 6.90679 | 0.97228 | 14832 ft | 412 kts | 342° |
| 2026-05-07 16:36 | 6.93377 | 0.96230 | 15099 ft | 414 kts | 342° |
| 2026-05-07 16:36 | 6.96075 | 0.95232 | 15364 ft | 415 kts | 342° |
| 2026-05-07 16:36 | 6.98801 | 0.94225 | 15621 ft | 417 kts | 342° |
| 2026-05-07 16:36 | 7.01529 | 0.93217 | 15863 ft | 418 kts | 342° |
| 2026-05-07 16:37 | 7.04263 | 0.92206 | 16124 ft | 419 kts | 342° |
| 2026-05-07 16:37 | 7.07011 | 0.91190 | 16382 ft | 421 kts | 342° |
| 2026-05-07 16:37 | 7.09764 | 0.90172 | 16628 ft | 422 kts | 342° |
| 2026-05-07 16:37 | 7.12525 | 0.89151 | 16862 ft | 424 kts | 342° |
| 2026-05-07 16:38 | 7.15291 | 0.88128 | 17093 ft | 425 kts | 342° |
| 2026-05-07 16:38 | 7.18078 | 0.87097 | 17323 ft | 427 kts | 341° |
| 2026-05-07 16:38 | 7.20868 | 0.86064 | 17500 ft | 429 kts | 341° |
| 2026-05-07 16:38 | 7.23672 | 0.85026 | 17746 ft | 429 kts | 341° |
| 2026-05-07 16:39 | 7.26477 | 0.83988 | 17973 ft | 430 kts | 341° |
| 2026-05-07 16:39 | 7.28341 | 0.83299 | 18113 ft | 431 kts | 341° |
| 2026-05-07 16:39 | 7.31162 | 0.82255 | 18291 ft | 432 kts | 341° |
| 2026-05-07 16:39 | 7.33989 | 0.81209 | 18489 ft | 434 kts | 341° |
| 2026-05-07 16:40 | 7.36826 | 0.80159 | 18656 ft | 435 kts | 341° |
| 2026-05-07 16:40 | 7.39674 | 0.79105 | 18821 ft | 437 kts | 341° |
| 2026-05-07 16:40 | 7.42529 | 0.78048 | 19003 ft | 438 kts | 341° |
| 2026-05-07 16:40 | 7.45393 | 0.76987 | 19170 ft | 439 kts | 341° |
| 2026-05-07 16:41 | 7.48261 | 0.75924 | 19337 ft | 440 kts | 341° |
| 2026-05-07 16:41 | 7.51137 | 0.74858 | 19506 ft | 441 kts | 341° |
| 2026-05-07 16:41 | 7.54022 | 0.73789 | 19675 ft | 442 kts | 341° |
| 2026-05-07 16:41 | 7.56909 | 0.72719 | 19833 ft | 443 kts | 341° |
| 2026-05-07 16:42 | 7.59808 | 0.71644 | 19992 ft | 444 kts | 341° |
| 2026-05-07 16:42 | 7.62710 | 0.70568 | 20131 ft | 445 kts | 341° |
| 2026-05-07 16:42 | 7.65624 | 0.69488 | 20286 ft | 447 kts | 341° |
| 2026-05-07 16:42 | 7.68534 | 0.68409 | 20424 ft | 448 kts | 341° |
| 2026-05-07 16:43 | 7.71471 | 0.67320 | 20577 ft | 449 kts | 341° |
| 2026-05-07 16:43 | 7.74403 | 0.66234 | 20725 ft | 449 kts | 341° |
| 2026-05-07 16:43 | 7.77343 | 0.65144 | 20844 ft | 451 kts | 341° |
| 2026-05-07 16:43 | 7.80289 | 0.64051 | 20990 ft | 452 kts | 341° |
| 2026-05-07 16:44 | 7.83240 | 0.62955 | 21132 ft | 453 kts | 341° |
| 2026-05-07 16:44 | 7.86202 | 0.61856 | 21261 ft | 454 kts | 341° |
| 2026-05-07 16:44 | 7.89164 | 0.60757 | 21389 ft | 454 kts | 341° |
| 2026-05-07 16:44 | 7.92135 | 0.59654 | 21506 ft | 456 kts | 341° |
| 2026-05-07 16:45 | 7.95110 | 0.58549 | 21638 ft | 457 kts | 341° |
| 2026-05-07 16:45 | 7.98098 | 0.57439 | 21747 ft | 458 kts | 341° |
| 2026-05-07 16:45 | 8.01089 | 0.56322 | 21868 ft | 459 kts | 340° |
| 2026-05-07 16:45 | 8.04043 | 0.55088 | 22003 ft | 460 kts | 338° |
| 2026-05-07 16:46 | 8.06962 | 0.53744 | 22137 ft | 461 kts | 336° |
| 2026-05-07 16:46 | 8.09850 | 0.52356 | 22257 ft | 463 kts | 335° |
| 2026-05-07 16:46 | 8.12761 | 0.50938 | 22371 ft | 464 kts | 335° |
| 2026-05-07 16:46 | 8.15674 | 0.49523 | 22492 ft | 465 kts | 335° |
| 2026-05-07 16:47 | 8.18593 | 0.48117 | 22626 ft | 465 kts | 336° |
| 2026-05-07 16:47 | 8.21523 | 0.46717 | 22753 ft | 466 kts | 336° |
| 2026-05-07 16:47 | 8.24459 | 0.45322 | 22845 ft | 467 kts | 336° |
| 2026-05-07 16:47 | 8.27404 | 0.43929 | 22968 ft | 468 kts | 336° |
| 2026-05-07 16:48 | 8.30354 | 0.42535 | 23089 ft | 469 kts | 336° |
| 2026-05-07 16:48 | 8.33316 | 0.41136 | 23201 ft | 470 kts | 336° |
| 2026-05-07 16:48 | 8.36237 | 0.39756 | 23313 ft | 470 kts | 336° |
| 2026-05-07 16:48 | 8.39198 | 0.38356 | 23447 ft | 470 kts | 336° |
| 2026-05-07 16:49 | 8.42166 | 0.36952 | 23532 ft | 471 kts | 336° |
| 2026-05-07 16:49 | 8.45120 | 0.35554 | 23618 ft | 472 kts | 336° |
| 2026-05-07 16:49 | 8.48112 | 0.34138 | 23709 ft | 472 kts | 336° |
| 2026-05-07 16:49 | 8.51086 | 0.32730 | 23805 ft | 473 kts | 336° |
| 2026-05-07 16:50 | 8.54070 | 0.31316 | 23897 ft | 473 kts | 336° |
| 2026-05-07 16:50 | 8.57051 | 0.29904 | 23993 ft | 474 kts | 336° |
| 2026-05-07 16:50 | 8.60039 | 0.28489 | 24078 ft | 474 kts | 336° |
| 2026-05-07 16:50 | 8.63026 | 0.27074 | 24156 ft | 475 kts | 336° |
| 2026-05-07 16:51 | 8.66024 | 0.25653 | 24252 ft | 476 kts | 336° |
| 2026-05-07 16:51 | 8.69019 | 0.24233 | 24347 ft | 476 kts | 336° |
| 2026-05-07 16:51 | 8.72023 | 0.22809 | 24431 ft | 477 kts | 336° |
| 2026-05-07 16:51 | 8.75027 | 0.21385 | 24534 ft | 477 kts | 336° |
| 2026-05-07 16:52 | 8.78030 | 0.19961 | 24623 ft | 477 kts | 336° |
| 2026-05-07 16:52 | 8.81035 | 0.18536 | 24712 ft | 478 kts | 336° |
| 2026-05-07 16:52 | 8.84048 | 0.17106 | 24801 ft | 478 kts | 336° |
| 2026-05-07 16:52 | 8.87070 | 0.15673 | 24893 ft | 479 kts | 336° |
| 2026-05-07 16:53 | 8.90086 | 0.14241 | 24965 ft | 479 kts | 336° |
| 2026-05-07 16:53 | 8.93109 | 0.12806 | 25049 ft | 480 kts | 335° |
| 2026-05-07 16:53 | 8.96132 | 0.11371 | 25131 ft | 481 kts | 335° |
| 2026-05-07 16:53 | 8.99115 | 0.09955 | 25216 ft | 481 kts | 335° |
| 2026-05-07 16:54 | 9.02153 | 0.08512 | 25290 ft | 482 kts | 335° |
| 2026-05-07 16:54 | 9.05193 | 0.07068 | 25371 ft | 482 kts | 335° |
| 2026-05-07 16:54 | 9.08229 | 0.05626 | 25455 ft | 483 kts | 335° |
| 2026-05-07 16:54 | 9.11267 | 0.04182 | 25524 ft | 483 kts | 335° |
| 2026-05-07 16:55 | 9.14316 | 0.02733 | 25573 ft | 484 kts | 335° |
| 2026-05-07 16:55 | 9.17365 | 0.01284 | 25656 ft | 485 kts | 335° |
| 2026-05-07 16:55 | 9.20422 | -0.00170 | 25755 ft | 485 kts | 335° |
| 2026-05-07 16:55 | 9.23477 | -0.01622 | 25815 ft | 486 kts | 335° |
| 2026-05-07 16:56 | 9.26544 | -0.03080 | 25829 ft | 488 kts | 335° |
| 2026-05-07 16:56 | 9.29614 | -0.04540 | 25908 ft | 488 kts | 335° |
| 2026-05-07 16:56 | 9.35768 | -0.07465 | 26126 ft | 489 kts | 335° |
| 2026-05-07 16:57 | 9.38850 | -0.08930 | 26202 ft | 490 kts | 335° |
| 2026-05-07 16:57 | 9.41942 | -0.10400 | 26304 ft | 491 kts | 335° |
| 2026-05-07 16:57 | 9.45032 | -0.11870 | 26439 ft | 491 kts | 335° |
| 2026-05-07 16:57 | 9.48111 | -0.13335 | 26521 ft | 492 kts | 335° |
| 2026-05-07 16:58 | 9.51230 | -0.14819 | 26562 ft | 494 kts | 335° |
| 2026-05-07 16:58 | 9.54342 | -0.16301 | 26672 ft | 495 kts | 335° |
| 2026-05-07 16:58 | 9.57456 | -0.17783 | 26837 ft | 494 kts | 335° |
| 2026-05-07 16:58 | 9.60569 | -0.19266 | 26900 ft | 495 kts | 335° |
| 2026-05-07 16:59 | 9.63650 | -0.20734 | 26952 ft | 497 kts | 335° |
| 2026-05-07 16:59 | 9.66807 | -0.22237 | 27051 ft | 497 kts | 335° |
| 2026-05-07 16:59 | 9.69950 | -0.23735 | 27201 ft | 497 kts | 335° |
| 2026-05-07 16:59 | 9.73076 | -0.25225 | 27279 ft | 498 kts | 335° |
| 2026-05-07 17:00 | 9.76218 | -0.26723 | 27315 ft | 500 kts | 334° |
| 2026-05-07 17:00 | 9.79310 | -0.28197 | 27425 ft | 500 kts | 334° |
| 2026-05-07 17:00 | 9.82504 | -0.29720 | 27556 ft | 500 kts | 334° |
| 2026-05-07 17:00 | 9.85657 | -0.31224 | 27627 ft | 501 kts | 334° |
| 2026-05-07 17:01 | 9.88771 | -0.32710 | 27683 ft | 502 kts | 334° |
| 2026-05-07 17:01 | 9.91932 | -0.34218 | 27797 ft | 502 kts | 334° |
| 2026-05-07 17:01 | 9.95088 | -0.35725 | 27937 ft | 501 kts | 334° |
| 2026-05-07 17:01 | 9.98247 | -0.37233 | 28013 ft | 503 kts | 334° |
| 2026-05-07 17:02 | 10.04593 | -0.40263 | 28160 ft | 504 kts | 334° |
| 2026-05-07 17:02 | 10.07768 | -0.41780 | 28292 ft | 504 kts | 334° |
| 2026-05-07 17:02 | 10.10940 | -0.43301 | 28338 ft | 505 kts | 334° |
| 2026-05-07 17:03 | 10.16178 | -0.45940 | 28468 ft | 506 kts | 332° |